< < Back
Terminal Aerodrome Forecast


Current Version              Previous Versions:   1  2  3  4  5  6  7  8  9  

Terminal Aerodrome Forecast

084
FTUS42 KTAE 082320
TAFVLD
TAF
KVLD 082320Z 0900/0924 27008KT P6SM SCT060 BKN100
     FM091500 28012G20KT P6SM SCT250=

Latest METAR

914
SAUS70 KWBC 100200 RRB
MTRVLD
METAR KVLD 100153Z 00000KT 10SM CLR 04/M06 A3003 RMK AO2 SLP179
T00441056


USA.gov is the U.S. government's official web portal to all federal, state and local government web resources and services.